Time;durP1;ratioP1;P1;durP2;ratioP2;P2;SDS_P1;SDS_P2;PMS_P1;PMS_P2;Temp;Humidity;BMP_temperature;BMP_pressure;BME280_temperature;BME280_humidity;BME280_pressure;Samples;Min_cycle;Max_cycle;Signal;HPM_P1;HPM_P2
2022/12/20 00:01:17;;;;;;;3.70;1.90;;;;;;;13.20;57.81;97588.91;4957315;27;20262;-76
2022/12/20 00:03:43;;;;;;;4.47;1.80;;;;;;;13.00;58.87;97575.69;4992206;28;20201;-75
2022/12/20 00:06:09;;;;;;;2.42;1.30;;;;;;;13.16;58.09;97574.75;4977834;28;20200;-76
2022/12/20 00:08:35;;;;;;;4.22;2.00;;;;;;;13.22;57.65;97565.13;5000115;28;20202;-76
2022/12/20 00:11:02;;;;;;;2.13;1.45;;;;;;;13.24;57.09;97569.03;4989391;28;20254;-76
2022/12/20 00:13:28;;;;;;;2.05;1.50;;;;;;;13.05;58.05;97563.44;4999262;27;20262;-76
2022/12/20 00:16:16;;;;;;;1.98;1.45;;;;;;;13.41;57.29;97568.94;5000935;28;20242;-76
2022/12/20 00:18:42;;;;;;;2.72;1.75;;;;;;;13.23;57.40;97566.69;4964244;28;20104;-76
2022/12/20 00:21:10;;;;;;;4.03;2.03;;;;;;;13.20;57.61;97570.59;4984723;28;20260;-76
2022/12/20 00:23:36;;;;;;;3.28;1.33;;;;;;;13.01;58.11;97553.75;5000354;28;20521;-75
2022/12/20 00:26:13;;;;;;;2.58;1.48;;;;;;;13.02;58.44;97552.69;4994719;28;20706;-76
2022/12/20 00:28:40;;;;;;;3.20;1.40;;;;;;;13.00;58.30;97560.78;5009668;27;20725;-76
2022/12/20 00:31:06;;;;;;;3.28;1.40;;;;;;;13.11;57.23;97551.97;4991521;28;20236;-76
2022/12/20 00:33:33;;;;;;;3.25;1.52;;;;;;;13.16;57.44;97553.03;4992624;28;20252;-75
2022/12/20 00:35:58;;;;;;;2.00;1.48;;;;;;;13.02;57.45;97553.50;4989295;28;20205;-76
2022/12/20 00:38:24;;;;;;;1.95;1.38;;;;;;;13.00;57.92;97547.72;5019258;27;20155;-75
2022/12/20 00:41:06;;;;;;;2.88;1.55;;;;;;;13.07;58.12;97550.09;4989304;28;20376;-76
2022/12/20 00:43:32;;;;;;;2.63;1.63;;;;;;;13.06;57.66;97545.94;4993938;27;20198;-75
2022/12/20 00:45:58;;;;;;;2.72;1.40;;;;;;;13.10;57.73;97547.78;4992151;27;20280;-76
2022/12/20 00:48:23;;;;;;;3.33;1.38;;;;;;;13.08;57.49;97549.09;4974305;27;20244;-76
2022/12/20 00:50:50;;;;;;;2.75;1.50;;;;;;;13.14;57.46;97539.44;5001902;28;20247;-76
2022/12/20 00:53:15;;;;;;;3.78;1.65;;;;;;;13.15;57.55;97552.25;4978556;28;20190;-76
2022/12/20 00:55:42;;;;;;;2.75;1.40;;;;;;;13.14;56.86;97552.50;5001847;28;20628;-76
2022/12/20 00:58:07;;;;;;;3.55;1.50;;;;;;;13.21;57.32;97553.06;5001317;28;20201;-75
2022/12/20 01:00:33;;;;;;;2.15;1.20;;;;;;;13.26;56.86;97553.91;4988279;28;20667;-76
2022/12/20 01:02:58;;;;;;;2.10;1.50;;;;;;;13.22;57.11;97552.81;5017030;28;20209;-76
2022/12/20 01:05:24;;;;;;;2.75;1.42;;;;;;;13.18;56.92;97546.53;4995499;28;20194;-76
2022/12/20 01:07:49;;;;;;;2.42;1.30;;;;;;;13.14;57.19;97545.44;4987991;28;20223;-76
2022/12/20 01:10:14;;;;;;;4.40;1.65;;;;;;;13.24;56.93;97539.50;4988727;28;20186;-75
2022/12/20 01:12:40;;;;;;;2.95;1.40;;;;;;;13.22;57.07;97547.59;5018813;28;20209;-76
2022/12/20 01:15:06;;;;;;;1.83;1.50;;;;;;;13.12;57.10;97542.31;4990636;28;20713;-76
2022/12/20 01:17:32;;;;;;;1.92;1.65;;;;;;;13.05;57.69;97542.50;4994605;28;20171;-76
2022/12/20 01:19:57;;;;;;;1.88;1.50;;;;;;;13.10;57.31;97536.53;5001924;27;20737;-76
2022/12/20 01:22:22;;;;;;;3.60;1.70;;;;;;;13.23;56.59;97543.97;5002176;27;20541;-76
2022/12/20 01:24:48;;;;;;;2.47;1.40;;;;;;;13.11;56.89;97535.50;5012263;28;20209;-76
2022/12/20 01:27:13;;;;;;;3.90;2.10;;;;;;;13.08;57.20;97530.78;4985565;27;20286;-77
2022/12/20 01:29:38;;;;;;;1.95;1.45;;;;;;;13.10;56.88;97526.88;5008472;28;20213;-75
2022/12/20 01:32:04;;;;;;;2.53;1.65;;;;;;;12.97;56.81;97518.66;4980152;28;20268;-76
2022/12/20 01:34:29;;;;;;;1.95;1.30;;;;;;;12.98;56.71;97522.88;4991353;28;20154;-76
2022/12/20 01:36:55;;;;;;;2.72;1.45;;;;;;;13.02;57.02;97529.97;4985191;28;20153;-76
2022/12/20 01:39:20;;;;;;;4.72;2.00;;;;;;;13.00;57.04;97524.19;5002379;28;20188;-75
2022/12/20 01:41:46;;;;;;;4.30;1.60;;;;;;;12.89;57.36;97525.94;5000870;28;20209;-76
2022/12/20 01:44:17;;;;;;;2.55;2.22;;;;;;;13.23;56.87;97524.84;4970375;28;20293;-76
2022/12/20 01:46:44;;;;;;;3.03;1.45;;;;;;;13.12;56.92;97526.63;5018896;28;20346;-76
2022/12/20 01:49:20;;;;;;;1.85;1.23;;;;;;;13.04;57.16;97514.00;4992013;28;20229;-75
2022/12/20 01:51:52;;;;;;;2.53;1.60;;;;;;;13.25;56.61;97512.31;4983656;28;20283;-75
2022/12/20 01:54:24;;;;;;;4.32;1.58;;;;;;;12.92;57.52;97512.38;5002792;28;20165;-76
2022/12/20 01:56:56;;;;;;;2.58;1.80;;;;;;;13.24;56.48;97513.34;4980222;28;20646;-76
2022/12/20 01:59:22;;;;;;;3.13;2.03;;;;;;;13.07;56.71;97501.25;4983200;28;20227;-75
2022/12/20 02:01:47;;;;;;;1.88;1.33;;;;;;;13.28;56.06;97506.56;4985825;28;20280;-76
2022/12/20 02:04:13;;;;;;;2.92;1.60;;;;;;;13.19;56.05;97490.56;4980984;28;20191;-74
2022/12/20 02:06:38;;;;;;;1.92;1.63;;;;;;;13.03;56.54;97492.31;4995790;28;20212;-76
2022/12/20 02:09:04;;;;;;;2.38;1.45;;;;;;;13.18;56.13;97489.00;4974071;27;20163;-76
2022/12/20 02:11:42;;;;;;;2.45;1.63;;;;;;;13.22;55.93;97490.06;4994274;28;20246;-76
2022/12/20 02:14:17;;;;;;;3.60;1.60;;;;;;;13.29;55.92;97490.63;5018757;28;20284;-76
2022/12/20 02:16:48;;;;;;;2.65;1.70;;;;;;;12.83;56.88;97492.97;5001302;28;20625;-74
2022/12/20 02:19:24;;;;;;;3.00;1.65;;;;;;;13.12;56.31;97487.41;4996228;28;20220;-76
2022/12/20 02:21:56;;;;;;;2.70;1.50;;;;;;;13.07;56.24;97482.13;4978284;28;20275;-76
2022/12/20 02:24:43;;;;;;;4.78;1.77;;;;;;;13.25;56.00;97486.97;4984960;28;20237;-75
2022/12/20 02:27:18;;;;;;;3.53;1.98;;;;;;;12.97;56.36;97488.13;5004775;28;20581;-76
2022/12/20 02:30:13;;;;;;;2.93;1.90;;;;;;;13.23;55.68;97490.84;4986268;28;20359;-76
2022/12/20 02:32:59;;;;;;;3.20;1.63;;;;;;;12.98;56.16;97488.91;4979497;28;20948;-75
2022/12/20 02:35:27;;;;;;;5.07;2.00;;;;;;;12.99;56.42;97498.28;4991030;28;20209;-75
2022/12/20 02:37:56;;;;;;;2.25;1.63;;;;;;;12.99;56.64;97498.28;4991218;27;20250;-75
2022/12/20 02:40:27;;;;;;;2.58;1.70;;;;;;;13.07;56.04;97485.56;4975555;28;20199;-76
2022/12/20 02:42:58;;;;;;;4.75;2.00;;;;;;;13.08;56.22;97489.72;5000799;28;20248;-76
2022/12/20 02:45:27;;;;;;;3.50;2.00;;;;;;;13.13;55.62;97485.59;4992249;28;20145;-75
2022/12/20 02:47:59;;;;;;;3.17;1.80;;;;;;;13.04;56.45;97478.22;4992932;28;20291;-76
2022/12/20 02:50:44;;;;;;;1.92;1.60;;;;;;;13.16;56.15;97472.81;4973973;28;20644;-76
2022/12/20 02:53:10;;;;;;;;;;;;;;;13.31;56.07;97477.31;4985272;28;20106;-76
2022/12/20 02:55:45;;;;;;;2.70;1.48;;;;;;;13.42;55.81;97483.41;4986642;28;20539;-76
2022/12/20 02:58:17;;;;;;;2.72;1.70;;;;;;;13.40;55.80;97483.66;4995627;28;20199;-75
2022/12/20 03:00:44;;;;;;;3.45;2.10;;;;;;;13.20;56.11;97475.69;4989746;28;20359;-76
2022/12/20 03:03:22;;;;;;;3.88;1.98;;;;;;;13.19;56.44;97477.50;5001879;27;20193;-74
2022/12/20 03:05:50;;;;;;;3.33;1.70;;;;;;;13.10;57.00;97477.19;4998102;28;20361;-76
2022/12/20 03:08:15;;;;;;;3.35;1.80;;;;;;;13.26;55.84;97475.47;4983370;28;20163;-76
2022/12/20 03:10:41;;;;;;;2.72;1.60;;;;;;;13.42;55.69;97465.88;5008566;28;20109;-75
2022/12/20 03:13:07;;;;;;;3.53;1.65;;;;;;;13.10;56.65;97456.28;4979647;28;20186;-76
2022/12/20 03:15:57;;;;;;;1.90;1.50;;;;;;;13.42;56.55;97449.41;4967966;28;20278;-75
2022/12/20 03:18:23;;;;;;;2.10;1.42;;;;;;;13.13;56.26;97452.38;4981389;28;20220;-74
2022/12/20 03:20:48;;;;;;;2.90;1.70;;;;;;;13.49;55.69;97442.91;5007634;28;20704;-76
2022/12/20 03:23:13;;;;;;;3.90;1.58;;;;;;;13.55;55.32;97440.28;4988926;28;20269;-76
2022/12/20 03:25:39;;;;;;;2.03;1.52;;;;;;;13.25;56.15;97432.03;5017259;28;20244;-75
2022/12/20 03:28:04;;;;;;;3.83;1.63;;;;;;;13.37;56.06;97428.47;5012052;28;20193;-75
2022/12/20 03:30:29;;;;;;;2.97;2.10;;;;;;;13.64;55.27;97439.56;4998171;28;20174;-76
2022/12/20 03:32:55;;;;;;;3.30;2.08;;;;;;;13.26;56.14;97425.78;4990338;27;20268;-76
2022/12/20 03:35:20;;;;;;;1.80;1.40;;;;;;;13.42;56.11;97433.72;4995294;28;20699;-76
2022/12/20 03:37:45;;;;;;;1.45;1.30;;;;;;;13.63;55.67;97431.94;4992090;27;20723;-76
2022/12/20 03:40:11;;;;;;;2.90;1.48;;;;;;;13.65;55.27;97428.03;4996181;28;20707;-76
2022/12/20 03:42:37;;;;;;;3.20;1.40;;;;;;;13.75;55.31;97440.34;4964679;28;20127;-76
2022/12/20 03:45:03;;;;;;;1.92;1.40;;;;;;;13.67;55.45;97433.81;5002818;28;20193;-75
2022/12/20 03:47:28;;;;;;;3.25;1.25;;;;;;;13.49;55.30;97432.44;4989783;28;20364;-76
2022/12/20 03:49:54;;;;;;;2.03;1.38;;;;;;;13.72;54.86;97429.63;4981996;28;20806;-76
2022/12/20 03:52:19;;;;;;;2.40;1.55;;;;;;;13.41;55.55;97426.91;5007830;28;20194;-76
2022/12/20 03:54:44;;;;;;;1.95;1.75;;;;;;;13.27;56.02;97427.34;5003014;27;20198;-75
2022/12/20 03:57:10;;;;;;;2.17;1.40;;;;;;;13.34;56.11;97419.28;4989839;28;20214;-75
2022/12/20 03:59:35;;;;;;;2.47;1.40;;;;;;;13.63;54.79;97432.72;4997699;28;20198;-76
2022/12/20 04:02:01;;;;;;;3.67;1.77;;;;;;;13.71;55.35;97422.81;5022676;28;20167;-76
2022/12/20 04:04:27;;;;;;;3.30;1.83;;;;;;;13.67;55.20;97423.34;5005267;28;20288;-76
2022/12/20 04:06:52;;;;;;;4.63;1.67;;;;;;;13.80;54.67;97426.50;5003807;28;20628;-76
2022/12/20 04:09:18;;;;;;;2.60;1.40;;;;;;;13.68;54.68;97435.38;5020458;27;20247;-75
2022/12/20 04:11:43;;;;;;;2.80;1.67;;;;;;;13.53;55.23;97429.31;5005090;27;20671;-76
2022/12/20 04:14:09;;;;;;;1.80;1.40;;;;;;;13.59;55.30;97438.72;4962364;28;20129;-76
2022/12/20 04:16:34;;;;;;;1.63;1.30;;;;;;;13.55;54.96;97425.38;5003352;27;20356;-76
2022/12/20 04:19:00;;;;;;;1.85;1.40;;;;;;;13.42;55.72;97423.25;4986248;28;20274;-75
2022/12/20 04:21:28;;;;;;;2.13;1.55;;;;;;;13.35;56.00;97430.53;4994752;27;20154;-75
2022/12/20 04:23:53;;;;;;;2.20;1.67;;;;;;;13.58;55.22;97427.47;5007106;28;20307;-76
2022/12/20 04:26:19;;;;;;;4.28;1.55;;;;;;;13.64;55.13;97429.09;4985205;28;20629;-75
2022/12/20 04:28:44;;;;;;;2.28;1.33;;;;;;;13.72;55.00;97429.63;4987878;28;20267;-75
2022/12/20 04:31:10;;;;;;;2.13;1.30;;;;;;;13.40;55.43;97425.31;4997459;28;20198;-74
2022/12/20 04:33:35;;;;;;;3.05;1.67;;;;;;;13.56;55.32;97426.19;4992901;28;20221;-76
2022/12/20 04:36:01;;;;;;;2.88;1.50;;;;;;;13.67;55.05;97427.78;4995921;28;20259;-76
2022/12/20 04:38:26;;;;;;;1.83;1.00;;;;;;;13.55;55.37;97417.53;4996522;27;20278;-76
2022/12/20 04:40:53;;;;;;;2.40;1.48;;;;;;;13.72;55.04;97425.16;4976646;28;20295;-76
2022/12/20 04:43:19;;;;;;;2.20;1.40;;;;;;;13.76;54.74;97420.19;4987443;28;20156;-76
2022/12/20 04:45:50;;;;;;;2.20;1.50;;;;;;;13.93;54.75;97420.78;4986205;28;20227;-75
2022/12/20 04:48:15;;;;;;;1.40;1.15;;;;;;;13.72;55.20;97424.38;4991571;28;20273;-76
2022/12/20 04:50:41;;;;;;;1.58;1.25;;;;;;;13.95;54.23;97416.06;4987202;28;20704;-76
2022/12/20 04:55:54;;;;;;;2.38;1.23;;;;;;;13.79;54.55;97427.53;4991219;28;20201;-75
2022/12/20 04:58:19;;;;;;;2.88;1.67;;;;;;;13.71;54.95;97417.56;4969438;28;20300;-76
2022/12/20 05:00:45;;;;;;;1.88;1.60;;;;;;;13.89;54.68;97414.47;4987330;28;20218;-76
2022/12/20 05:03:10;;;;;;;1.85;1.40;;;;;;;13.89;54.65;97417.09;4989450;28;20155;-75
2022/12/20 05:05:36;;;;;;;1.92;1.67;;;;;;;13.65;55.15;97428.03;4977869;28;20247;-74
2022/12/20 05:08:01;;;;;;;3.53;1.10;;;;;;;13.88;54.42;97412.91;4991449;28;20636;-75
2022/12/20 05:10:26;;;;;;;1.95;1.33;;;;;;;13.93;54.29;97414.75;4994753;28;20237;-76
2022/12/20 05:12:52;;;;;;;3.38;0.90;;;;;;;13.81;54.19;97407.13;4996417;28;20298;-76
2022/12/20 05:15:17;;;;;;;2.08;1.20;;;;;;;13.71;54.31;97407.91;5011475;28;20202;-76
2022/12/20 05:17:42;;;;;;;2.40;1.52;;;;;;;13.67;54.62;97407.66;4975344;28;20772;-75
2022/12/20 05:20:08;;;;;;;2.83;1.20;;;;;;;13.87;54.40;97398.25;4981856;28;20225;-76
2022/12/20 05:28:02;;;;;;;1.80;1.60;;;;;;;13.93;53.84;97399.84;4995066;28;20218;-76
2022/12/20 05:30:27;;;;;;;2.50;1.40;;;;;;;13.78;54.49;97395.34;4976501;28;20205;-76
2022/12/20 05:32:53;;;;;;;1.73;1.45;;;;;;;13.69;54.14;97389.03;4991813;28;20281;-76
2022/12/20 05:35:18;;;;;;;2.15;1.58;;;;;;;13.72;54.39;97393.00;4973822;28;20133;-75
2022/12/20 05:37:44;;;;;;;1.80;1.40;;;;;;;13.56;54.40;97386.94;4975578;28;20217;-76
2022/12/20 05:40:10;;;;;;;3.17;1.60;;;;;;;13.80;54.29;97400.34;5000589;28;20210;-76
2022/12/20 05:42:35;;;;;;;2.13;1.85;;;;;;;13.99;53.99;97398.00;4969318;27;20532;-76
2022/12/20 05:45:01;;;;;;;3.17;1.77;;;;;;;13.79;54.55;97399.53;4991205;28;20247;-76
2022/12/20 05:47:27;;;;;;;3.03;1.35;;;;;;;13.77;55.03;97395.63;4965416;28;20961;-75
2022/12/20 05:49:52;;;;;;;2.50;1.30;;;;;;;13.94;54.43;97380.44;4987425;28;20191;-76
2022/12/20 05:52:18;;;;;;;3.13;1.50;;;;;;;14.00;54.38;97373.38;4996486;28;20529;-76
2022/12/20 05:54:43;;;;;;;1.88;1.27;;;;;;;13.88;54.39;97380.69;4984144;28;20284;-75
2022/12/20 05:57:09;;;;;;;1.70;1.27;;;;;;;13.86;54.64;97384.38;4989554;28;20161;-75
2022/12/20 05:59:34;;;;;;;2.83;1.40;;;;;;;13.79;54.68;97377.81;4982591;28;20206;-75
2022/12/20 06:02:00;;;;;;;2.05;1.30;;;;;;;13.99;54.03;97377.84;4986356;28;20243;-76
2022/12/20 06:04:25;;;;;;;2.42;1.30;;;;;;;13.81;54.25;97371.28;5009043;28;20235;-76
2022/12/20 06:06:51;;;;;;;2.38;1.45;;;;;;;13.59;54.65;97371.50;4988459;28;20205;-76
2022/12/20 06:09:16;;;;;;;1.80;1.42;;;;;;;13.80;54.60;97368.94;4989668;28;20213;-76
2022/12/20 06:11:42;;;;;;;2.33;1.55;;;;;;;13.89;53.93;97369.97;4985135;28;20216;-76
2022/12/20 06:14:07;;;;;;;2.38;1.17;;;;;;;13.95;54.53;97373.38;4981686;28;20349;-76
2022/12/20 06:16:32;;;;;;;2.63;1.73;;;;;;;14.16;53.73;97371.56;4991110;28;20100;-76
2022/12/20 06:18:59;;;;;;;1.52;1.25;;;;;;;13.96;54.13;97375.72;4989042;28;20341;-75
2022/12/20 06:21:26;;;;;;;1.98;1.40;;;;;;;13.83;54.49;97373.66;4985903;28;20292;-74
2022/12/20 06:23:51;;;;;;;2.92;1.40;;;;;;;13.94;54.28;97380.44;4992411;28;20195;-76
2022/12/20 06:26:17;;;;;;;1.92;1.20;;;;;;;14.05;54.02;97371.56;4997172;28;20257;-76
2022/12/20 06:28:43;;;;;;;1.60;1.10;;;;;;;14.03;53.76;97372.88;4976743;28;20186;-76
2022/12/20 06:31:09;;;;;;;2.08;1.08;;;;;;;13.93;53.97;97381.50;5017319;28;20213;-75
2022/12/20 06:33:35;;;;;;;2.38;1.50;;;;;;;13.86;54.45;97380.97;4969150;28;20193;-75
2022/12/20 06:36:01;;;;;;;1.73;1.40;;;;;;;14.04;54.09;97371.81;4962497;28;20667;-76
2022/12/20 06:38:26;;;;;;;2.67;1.00;;;;;;;14.01;53.85;97369.72;5000303;28;20184;-76
2022/12/20 06:40:51;;;;;;;1.75;1.20;;;;;;;14.20;53.49;97372.59;4999565;28;20600;-76
2022/12/20 06:43:17;;;;;;;1.92;1.20;;;;;;;14.04;54.00;97364.75;4973546;28;20284;-76
2022/12/20 06:45:42;;;;;;;2.50;1.25;;;;;;;14.04;53.73;97363.97;5006904;28;20205;-76
2022/12/20 06:48:07;;;;;;;1.75;1.45;;;;;;;14.09;53.58;97361.34;4995092;28;20250;-76
2022/12/20 06:50:33;;;;;;;2.53;1.50;;;;;;;13.91;54.11;97370.50;4978932;28;20505;-76
2022/12/20 06:52:58;;;;;;;1.40;1.30;;;;;;;13.91;54.51;97375.72;5005405;28;20282;-76
2022/12/20 06:55:24;;;;;;;3.10;1.63;;;;;;;13.88;54.69;97370.22;4991626;28;20189;-76
2022/12/20 06:57:49;;;;;;;2.38;1.20;;;;;;;13.99;54.61;97371.81;4973408;28;20163;-76
2022/12/20 07:00:15;;;;;;;1.90;1.13;;;;;;;13.98;54.74;97370.25;4979411;28;20200;-76
2022/12/20 07:02:41;;;;;;;3.35;1.25;;;;;;;13.79;54.96;97375.19;4972302;28;20637;-76
2022/12/20 07:05:07;;;;;;;2.42;1.40;;;;;;;13.70;54.88;97364.47;4983637;28;20275;-76
2022/12/20 07:07:32;;;;;;;3.97;1.60;;;;;;;13.93;54.33;97363.19;4996337;28;20606;-76
2022/12/20 07:09:58;;;;;;;2.13;1.52;;;;;;;13.92;54.80;97371.31;5002827;28;20186;-76
2022/12/20 07:12:23;;;;;;;1.80;1.10;;;;;;;13.87;55.01;97369.47;5017049;28;20619;-76
2022/12/20 07:14:49;;;;;;;1.95;1.40;;;;;;;13.80;54.66;97376.78;4966829;28;20210;-76
2022/12/20 07:17:14;;;;;;;1.65;1.38;;;;;;;13.85;54.71;97366.31;4996036;27;20216;-76
2022/12/20 07:19:41;;;;;;;2.90;1.58;;;;;;;13.90;55.16;97357.66;5018993;27;20163;-75
2022/12/20 07:22:06;;;;;;;1.58;1.10;;;;;;;13.97;54.49;97360.84;4972633;28;20167;-74
2022/12/20 07:24:32;;;;;;;2.53;1.40;;;;;;;13.92;54.69;97364.22;4988727;28;20175;-76
2022/12/20 07:26:57;;;;;;;2.92;1.60;;;;;;;13.92;54.31;97366.06;4984967;27;20410;-75
2022/12/20 07:29:24;;;;;;;2.30;1.25;;;;;;;13.82;54.76;97364.22;4997803;27;20322;-75
2022/12/20 07:31:50;;;;;;;1.50;1.40;;;;;;;13.79;54.75;97362.13;4974921;28;20189;-73
2022/12/20 07:34:15;;;;;;;2.42;1.38;;;;;;;14.02;54.81;97361.63;4961237;28;20206;-75
2022/12/20 07:36:41;;;;;;;1.88;1.40;;;;;;;14.12;53.96;97357.41;4962524;28;20148;-75
2022/12/20 07:39:07;;;;;;;2.05;1.50;;;;;;;14.09;54.13;97350.88;5008404;27;20190;-76
2022/12/20 07:41:32;;;;;;;2.80;1.58;;;;;;;14.05;54.04;97350.63;4989525;27;20292;-75
2022/12/20 07:43:58;;;;;;;2.42;0.95;;;;;;;14.04;54.17;97349.03;4994300;28;20260;-76
2022/12/20 07:46:23;;;;;;;2.45;1.00;;;;;;;13.79;54.32;97349.03;4984608;28;20295;-76
2022/12/20 07:48:49;;;;;;;3.25;1.20;;;;;;;14.02;54.23;97345.91;4976612;28;20181;-76
2022/12/20 07:51:18;;;;;;;1.90;0.93;;;;;;;13.94;54.25;97338.56;4962381;28;20156;-75
2022/12/20 07:53:53;;;;;;;1.63;1.20;;;;;;;14.01;54.46;97328.63;4983919;28;20244;-75
2022/12/20 07:56:19;;;;;;;1.70;1.00;;;;;;;14.02;53.99;97338.06;4979499;28;20203;-75
2022/12/20 07:58:47;;;;;;;1.33;1.02;;;;;;;14.14;53.89;97331.78;4970658;28;20264;-75
2022/12/20 08:01:12;;;;;;;2.08;1.23;;;;;;;14.00;54.15;97334.91;4974109;28;20274;-76
2022/12/20 08:03:45;;;;;;;1.00;0.90;;;;;;;14.21;54.01;97327.06;4964846;28;20183;-76
2022/12/20 08:06:11;;;;;;;1.20;1.10;;;;;;;14.04;54.02;97341.19;5000742;27;20200;-76
2022/12/20 08:08:39;;;;;;;2.63;1.10;;;;;;;14.40;53.35;97328.06;5011350;27;20250;-76
2022/12/20 08:11:07;;;;;;;1.40;1.30;;;;;;;14.33;53.07;97330.16;5005169;27;20416;-76
2022/12/20 08:13:32;;;;;;;3.42;1.08;;;;;;;14.27;53.29;97333.06;5011573;27;20203;-76
2022/12/20 08:15:59;;;;;;;1.60;1.17;;;;;;;14.40;53.08;97330.69;5028472;27;20250;-75
2022/12/20 08:18:24;;;;;;;2.35;1.27;;;;;;;14.53;52.62;97325.94;4994499;27;20250;-76
2022/12/20 08:20:49;;;;;;;2.22;1.10;;;;;;;14.49;52.70;97317.03;5011729;28;20163;-76
2022/12/20 08:23:15;;;;;;;1.23;1.13;;;;;;;14.67;52.20;97307.84;5014319;27;20653;-76
2022/12/20 08:25:40;;;;;;;2.13;1.00;;;;;;;14.52;52.52;97312.06;5047000;27;20634;-75
2022/12/20 08:28:06;;;;;;;2.00;1.10;;;;;;;14.64;52.25;97305.78;4994194;27;20208;-76
2022/12/20 08:30:31;;;;;;;1.73;1.27;;;;;;;14.63;52.39;97307.59;5023043;28;20287;-75
2022/12/20 08:32:56;;;;;;;1.65;0.88;;;;;;;14.73;51.96;97312.81;4992900;27;20192;-75
2022/12/20 08:35:22;;;;;;;2.08;1.10;;;;;;;14.64;51.94;97314.41;5011320;27;20169;-75
2022/12/20 08:37:51;;;;;;;2.75;1.20;;;;;;;14.94;51.65;97307.47;4991326;27;20684;-75
2022/12/20 08:40:16;;;;;;;1.42;1.10;;;;;;;14.83;51.47;97311.22;4992034;28;20232;-75
2022/12/20 08:42:41;;;;;;;1.45;0.90;;;;;;;14.77;51.75;97305.19;4998797;28;20651;-76
2022/12/20 08:45:07;;;;;;;1.33;1.15;;;;;;;15.06;51.26;97315.84;5008056;27;20263;-76
2022/12/20 08:47:32;;;;;;;1.33;0.93;;;;;;;15.01;51.11;97315.06;5011282;27;20715;-75
2022/12/20 08:49:58;;;;;;;1.88;1.00;;;;;;;14.96;51.01;97311.41;5046353;27;20212;-76
2022/12/20 08:52:23;;;;;;;0.82;0.82;;;;;;;15.19;50.85;97319.69;5023263;27;20200;-75
2022/12/20 08:54:48;;;;;;;1.95;0.80;;;;;;;15.20;50.63;97318.66;5027533;27;20646;-76
2022/12/20 08:57:14;;;;;;;4.10;1.58;;;;;;;15.23;50.47;97312.06;5027234;27;20295;-76
2022/12/20 08:59:39;;;;;;;2.45;1.00;;;;;;;15.34;50.24;97317.00;4993651;27;20185;-75
2022/12/20 09:02:05;;;;;;;1.83;1.20;;;;;;;15.43;49.70;97308.56;4994064;27;20191;-76
2022/12/20 09:04:30;;;;;;;2.35;0.90;;;;;;;15.39;49.67;97303.06;5011203;27;20193;-76
2022/12/20 09:06:56;;;;;;;1.42;1.02;;;;;;;15.50;49.48;97296.69;5020830;27;20668;-76
2022/12/20 09:09:21;;;;;;;1.30;1.02;;;;;;;15.52;49.64;97306.91;5027579;27;20276;-75
2022/12/20 09:11:46;;;;;;;1.75;1.10;;;;;;;15.58;49.63;97307.69;5010550;27;20208;-76
2022/12/20 09:14:12;;;;;;;1.85;0.88;;;;;;;15.55;49.56;97316.88;4993978;27;20153;-75
2022/12/20 09:16:37;;;;;;;3.10;0.82;;;;;;;15.61;50.14;97305.28;5004026;27;20278;-76
2022/12/20 09:19:03;;;;;;;3.42;1.65;;;;;;;15.63;48.94;97302.41;4996572;27;20158;-76
2022/12/20 09:21:28;;;;;;;1.48;1.20;;;;;;;15.55;48.88;97301.91;5027487;27;20181;-77
2022/12/20 09:23:55;;;;;;;2.30;1.00;;;;;;;15.73;49.20;97304.94;5005332;27;20280;-76
2022/12/20 09:26:21;;;;;;;2.70;1.10;;;;;;;15.79;48.83;97305.72;5010585;27;20177;-76
2022/12/20 09:28:47;;;;;;;2.13;1.00;;;;;;;15.71;48.75;97299.16;4993137;27;20372;-76
2022/12/20 09:31:15;;;;;;;1.25;1.02;;;;;;;15.91;48.85;97291.16;5027154;27;20280;-76
2022/12/20 09:33:41;;;;;;;2.20;0.90;;;;;;;15.88;48.77;97286.44;5010159;27;20234;-76
2022/12/20 09:36:10;;;;;;;2.55;1.20;;;;;;;15.86;48.68;97280.69;4993881;27;20208;-76
2022/12/20 09:38:35;;;;;;;1.83;1.00;;;;;;;15.66;48.05;97279.00;4991279;27;20192;-75
2022/12/20 09:41:03;;;;;;;2.13;1.00;;;;;;;15.92;48.34;97284.09;5009497;27;20234;-76
2022/12/20 09:43:28;;;;;;;1.05;0.85;;;;;;;15.70;48.93;97282.63;4993609;28;20146;-75
2022/12/20 09:45:56;;;;;;;1.48;0.90;;;;;;;15.82;48.96;97286.78;5009650;27;20298;-76
2022/12/20 09:48:24;;;;;;;1.35;0.90;;;;;;;15.81;48.55;97288.63;5026724;28;20212;-75
2022/12/20 09:51:09;;;;;;;1.98;0.90;;;;;;;15.85;47.98;97305.41;4987268;28;20757;-76
2022/12/20 09:53:56;;;;;;;2.08;1.13;;;;;;;15.98;48.18;97303.19;5007025;28;20294;-76
2022/12/20 09:56:59;;;;;;;3.08;1.00;;;;;;;16.13;47.87;97310.16;4992878;28;20205;-76
2022/12/20 09:59:24;;;;;;;3.10;1.02;;;;;;;15.83;48.33;97312.75;4982984;28;20201;-76
2022/12/20 10:01:50;;;;;;;1.17;0.95;;;;;;;15.97;48.62;97307.66;5006156;28;20188;-75
2022/12/20 10:04:22;;;;;;;2.30;0.90;;;;;;;15.79;48.47;97309.13;4990782;28;20246;-76
2022/12/20 10:07:06;;;;;;;1.35;1.00;;;;;;;15.79;48.34;97305.72;4976425;28;20171;-76
2022/12/20 10:09:35;;;;;;;1.40;1.02;;;;;;;16.03;47.92;97303.94;4988639;28;20289;-75
2022/12/20 10:12:07;;;;;;;1.13;0.90;;;;;;;15.75;48.30;97300.22;4998055;28;20293;-76
2022/12/20 10:15:10;;;;;;;2.88;1.05;;;;;;;16.12;47.98;97292.81;4974006;28;20726;-76
2022/12/20 10:17:38;;;;;;;1.73;1.10;;;;;;;16.07;47.85;97302.34;4970843;28;20350;-76
2022/12/20 10:20:33;;;;;;;2.10;1.13;;;;;;;16.12;47.92;97305.97;4982154;28;20269;-75
2022/12/20 10:23:16;;;;;;;1.70;0.98;;;;;;;16.03;47.57;97305.78;5022641;28;20267;-75
2022/12/20 10:25:42;;;;;;;2.50;1.90;;;;;;;15.69;48.16;97290.78;5009944;28;20204;-76
2022/12/20 10:28:14;;;;;;;1.95;1.10;;;;;;;15.57;48.77;97285.09;4987094;28;20259;-76
2022/12/20 10:30:40;;;;;;;3.08;1.08;;;;;;;15.76;47.94;97278.16;5009422;27;20246;-76
2022/12/20 10:33:15;;;;;;;1.83;0.80;;;;;;;15.85;48.04;97273.91;4986770;28;20271;-76
2022/12/20 10:35:42;;;;;;;1.00;0.73;;;;;;;15.85;48.38;97267.84;5009740;28;20185;-76
2022/12/20 10:38:11;;;;;;;3.05;1.05;;;;;;;15.87;48.15;97266.53;5009192;28;20687;-76
2022/12/20 10:40:42;;;;;;;1.80;1.00;;;;;;;15.63;48.22;97271.66;4969971;28;20234;-76
2022/12/20 10:43:15;;;;;;;2.25;1.02;;;;;;;15.67;48.30;97258.78;4991353;28;20276;-75
2022/12/20 10:45:42;;;;;;;1.30;1.05;;;;;;;15.82;48.12;97260.53;4992479;27;20237;-76
2022/12/20 10:48:38;;;;;;;1.25;1.15;;;;;;;15.46;48.31;97250.28;4967177;28;20277;-76
2022/12/20 10:51:09;;;;;;;1.20;0.85;;;;;;;15.95;48.01;97248.59;4973836;28;20263;-76
2022/12/20 10:53:36;;;;;;;2.55;1.20;;;;;;;15.84;48.26;97240.03;5003504;28;20337;-75
2022/12/20 10:56:18;;;;;;;1.00;0.90;;;;;;;15.77;48.56;97236.94;4989344;28;20354;-76
2022/12/20 10:59:01;;;;;;;1.50;1.10;;;;;;;16.03;47.42;97226.97;5002973;28;20273;-76
2022/12/20 11:01:34;;;;;;;1.88;1.05;;;;;;;16.01;47.36;97218.59;4986723;28;20150;-76
2022/12/20 11:04:32;;;;;;;2.15;1.00;;;;;;;16.00;47.78;97228.31;4999220;27;20287;-76
2022/12/20 11:06:59;;;;;;;1.85;0.85;;;;;;;15.93;48.09;97224.47;4974311;28;20291;-76
2022/12/20 11:09:39;;;;;;;1.75;1.10;;;;;;;16.01;47.89;97229.13;4986585;27;20248;-74
2022/12/20 11:12:15;;;;;;;1.65;1.13;;;;;;;15.79;48.15;97217.22;4980274;28;20189;-76
2022/12/20 11:14:43;;;;;;;1.83;1.08;;;;;;;15.76;48.20;97217.00;5003972;28;20284;-76
2022/12/20 11:17:28;;;;;;;1.48;1.00;;;;;;;15.79;48.14;97217.22;4965265;28;20686;-76
2022/12/20 11:20:31;;;;;;;2.17;1.10;;;;;;;16.16;47.74;97205.31;4979636;27;20281;-76
2022/12/20 11:23:16;;;;;;;1.10;0.90;;;;;;;16.04;47.94;97210.16;4994073;28;20210;-76
2022/12/20 11:26:15;;;;;;;1.40;1.00;;;;;;;16.08;47.86;97204.06;4998472;28;20188;-76
2022/12/20 11:28:51;;;;;;;2.55;1.48;;;;;;;15.93;48.27;97206.06;4979947;28;20189;-76
2022/12/20 11:31:32;;;;;;;2.38;1.38;;;;;;;16.16;48.25;97194.00;5006071;28;20158;-76
2022/12/20 11:34:13;;;;;;;2.20;1.10;;;;;;;16.04;47.76;97189.13;4990988;28;20203;-76
2022/12/20 11:37:01;;;;;;;2.13;1.15;;;;;;;16.25;48.29;97193.13;4992424;28;20182;-76
2022/12/20 11:39:33;;;;;;;2.92;1.13;;;;;;;16.26;47.61;97178.13;5004431;28;20270;-76
2022/12/20 11:42:17;;;;;;;1.90;1.00;;;;;;;16.15;47.86;97187.22;5008583;28;20241;-76
2022/12/20 11:44:42;;;;;;;1.65;1.30;;;;;;;15.99;48.13;97194.44;4976845;28;20206;-76
2022/12/20 11:47:33;;;;;;;2.03;1.05;;;;;;;16.00;47.61;97196.78;4989262;28;20167;-76
2022/12/20 11:50:22;;;;;;;0.93;0.82;;;;;;;16.22;47.62;97185.03;4995621;27;20236;-75